createdAt,value
2017-08-26T00:00:25.377Z,17.29
2017-08-26T00:02:18.618Z,17.23
2017-08-26T00:03:19.062Z,17.20
2017-08-26T00:05:12.302Z,17.16
2017-08-26T00:06:12.734Z,17.11
2017-08-26T00:07:13.177Z,17.15
2017-08-26T00:09:06.405Z,17.26
2017-08-26T00:10:06.844Z,17.19
2017-08-26T00:11:07.275Z,17.20
2017-08-26T00:12:07.713Z,17.20
2017-08-26T00:13:08.142Z,17.16
2017-08-26T00:14:08.593Z,17.19
2017-08-26T00:16:01.801Z,17.08
2017-08-26T00:17:02.246Z,17.01
2017-08-26T00:18:02.681Z,17.05
2017-08-26T00:19:03.121Z,17.06
2017-08-26T00:20:56.344Z,17.02
2017-08-26T00:21:56.796Z,16.94
2017-08-26T00:22:57.224Z,16.94
2017-08-26T00:24:50.487Z,17.02
2017-08-26T00:25:50.925Z,16.89
2017-08-26T00:27:45.123Z,16.84
2017-08-26T00:29:38.365Z,16.84
2017-08-26T00:30:38.790Z,16.89
2017-08-26T00:31:39.227Z,16.86
2017-08-26T00:33:32.453Z,16.87
2017-08-26T00:34:34.699Z,16.81
2017-08-26T00:36:26.109Z,16.89
2017-08-26T00:37:26.559Z,16.84
2017-08-26T00:38:27.012Z,16.84
2017-08-26T00:40:20.213Z,16.78
2017-08-26T00:41:20.658Z,16.74
2017-08-26T00:42:21.094Z,16.72
2017-08-26T00:44:14.312Z,16.76
2017-08-26T00:45:14.752Z,16.75
2017-08-26T00:46:15.186Z,16.76
2017-08-26T00:47:15.623Z,16.81
2017-08-26T00:49:08.831Z,16.74
2017-08-26T00:50:09.278Z,16.75
2017-08-26T00:51:09.721Z,16.65
2017-08-26T00:52:10.147Z,16.61
2017-08-26T00:53:10.583Z,16.65
2017-08-26T00:54:11.020Z,16.60
2017-08-26T00:56:04.246Z,16.61
2017-08-26T00:57:04.680Z,16.53
2017-08-26T00:58:05.114Z,16.43
2017-08-26T00:59:05.547Z,16.51
2017-08-26T01:00:58.802Z,16.53
2017-08-26T01:01:59.225Z,16.49
2017-08-26T01:02:59.643Z,16.53
2017-08-26T01:04:00.102Z,16.57
2017-08-26T01:05:53.285Z,16.57
2017-08-26T01:06:53.726Z,16.56
2017-08-26T01:07:54.159Z,16.65
2017-08-26T01:08:54.598Z,16.56
2017-08-26T01:09:55.030Z,16.64
2017-08-26T01:10:55.463Z,16.51
2017-08-26T01:11:55.903Z,16.53
2017-08-26T01:13:49.121Z,16.54
2017-08-26T01:14:49.561Z,16.42
2017-08-26T01:15:49.997Z,16.49
2017-08-26T01:17:43.209Z,16.50
2017-08-26T01:18:43.668Z,16.46
2017-08-26T01:19:44.091Z,16.50
2017-08-26T01:21:37.348Z,16.46
2017-08-26T01:22:37.752Z,16.54
2017-08-26T01:23:38.182Z,16.42
2017-08-26T01:24:38.615Z,16.47
2017-08-26T01:25:39.055Z,16.51
2017-08-26T01:27:32.275Z,16.43
2017-08-26T01:28:32.740Z,16.46
2017-08-26T01:29:33.151Z,16.46
2017-08-26T01:31:26.379Z,16.56
2017-08-26T01:32:26.814Z,16.50
2017-08-26T01:33:27.245Z,16.43
2017-08-26T01:34:27.685Z,16.47
2017-08-26T01:36:20.904Z,16.53
2017-08-26T01:38:14.117Z,16.49
2017-08-26T01:39:14.557Z,16.56
2017-08-26T01:40:14.997Z,16.61
2017-08-26T01:42:08.207Z,16.51
2017-08-26T01:43:08.659Z,16.51
2017-08-26T01:44:09.088Z,16.57
2017-08-26T01:45:09.523Z,16.57
2017-08-26T01:47:02.730Z,16.51
2017-08-26T01:48:03.170Z,16.57
2017-08-26T01:49:03.606Z,16.53
2017-08-26T01:50:04.055Z,16.56
2017-08-26T01:51:57.265Z,16.53
2017-08-26T01:52:57.714Z,16.49
2017-08-26T01:53:58.140Z,16.49
2017-08-26T01:54:58.578Z,16.53
2017-08-26T01:56:51.787Z,16.57
2017-08-26T01:58:45.010Z,16.51
2017-08-26T01:59:45.464Z,16.49
2017-08-26T02:02:19.963Z,16.42
2017-08-26T02:03:20.417Z,16.39
2017-08-26T02:04:20.845Z,16.53
2017-08-26T02:05:21.278Z,16.43
2017-08-26T02:06:21.713Z,16.42
2017-08-26T02:07:22.153Z,16.47
2017-08-26T02:08:22.579Z,16.41
2017-08-26T02:10:15.801Z,16.39
2017-08-26T02:11:16.242Z,16.51
2017-08-26T02:12:16.679Z,16.49
2017-08-26T02:13:17.110Z,16.41
2017-08-26T02:15:10.329Z,16.57
2017-08-26T02:16:10.785Z,16.47
2017-08-26T02:17:11.207Z,16.39
2017-08-26T02:18:11.636Z,16.47
2017-08-26T02:20:05.835Z,16.39
2017-08-26T02:21:06.278Z,16.43
2017-08-26T02:22:06.715Z,16.38
2017-08-26T02:23:07.144Z,16.36
2017-08-26T02:25:00.363Z,16.42
2017-08-26T02:26:00.804Z,16.36
2017-08-26T02:27:01.238Z,16.32
2017-08-26T02:28:01.669Z,16.32
2017-08-26T02:29:54.888Z,16.35
2017-08-26T02:30:55.323Z,16.36
2017-08-26T02:31:55.753Z,16.38
2017-08-26T02:32:56.192Z,16.33
2017-08-26T02:33:56.616Z,16.35
2017-08-26T02:34:57.060Z,16.38
2017-08-26T02:35:57.482Z,16.38
2017-08-26T02:36:57.924Z,16.36
2017-08-26T02:38:51.138Z,16.31
2017-08-26T02:39:51.578Z,16.35
2017-08-26T02:40:52.016Z,16.32
2017-08-26T02:42:45.225Z,16.26
2017-08-26T02:43:45.669Z,16.24
2017-08-26T02:44:46.107Z,16.23
2017-08-26T02:45:46.536Z,16.17
2017-08-26T02:47:39.748Z,16.28
2017-08-26T02:48:40.189Z,16.17
2017-08-26T02:49:40.623Z,16.21
2017-08-26T02:50:41.061Z,16.23
2017-08-26T02:51:41.518Z,16.24
2017-08-26T02:53:34.726Z,16.21
2017-08-26T02:54:35.150Z,16.13
2017-08-26T02:55:35.594Z,16.12
2017-08-26T02:56:36.016Z,16.09
2017-08-26T02:57:36.454Z,16.10
2017-08-26T02:58:36.892Z,16.08
2017-08-26T03:00:30.095Z,16.04
2017-08-26T03:01:30.544Z,15.91
2017-08-26T03:02:30.972Z,16.00
2017-08-26T03:03:31.421Z,15.95
2017-08-26T03:04:31.838Z,16.00
2017-08-26T03:05:32.274Z,15.91
2017-08-26T03:06:32.701Z,15.90
2017-08-26T03:07:33.140Z,15.82
2017-08-26T03:09:27.341Z,15.91
2017-08-26T03:10:27.779Z,15.86
2017-08-26T03:11:28.214Z,15.86
2017-08-26T03:12:28.676Z,15.72
2017-08-26T03:14:21.854Z,15.73
2017-08-26T03:16:15.076Z,15.75
2017-08-26T03:17:15.520Z,15.64
2017-08-26T03:18:15.950Z,15.54
2017-08-26T03:19:16.389Z,15.61
2017-08-26T03:20:16.816Z,15.65
2017-08-26T03:21:17.250Z,15.65
2017-08-26T03:22:17.702Z,15.65
2017-08-26T03:24:10.958Z,15.70
2017-08-26T03:25:11.394Z,15.57
2017-08-26T03:26:11.821Z,15.57
2017-08-26T03:27:12.256Z,15.52
2017-08-26T03:28:12.687Z,15.59
2017-08-26T03:29:13.124Z,15.55
2017-08-26T03:31:06.343Z,15.61
2017-08-26T03:32:06.784Z,15.57
2017-08-26T03:33:07.220Z,15.58
2017-08-26T03:34:07.655Z,15.61
2017-08-26T03:35:08.085Z,15.64
2017-08-26T03:37:01.289Z,15.70
2017-08-26T03:38:54.517Z,15.67
2017-08-26T03:39:54.956Z,15.70
2017-08-26T03:40:55.388Z,15.67
2017-08-26T03:42:48.602Z,15.65
2017-08-26T03:43:49.041Z,15.65
2017-08-26T03:44:49.477Z,15.75
2017-08-26T03:45:49.914Z,15.70
2017-08-26T03:47:43.126Z,15.75
2017-08-26T03:48:43.573Z,15.67
2017-08-26T03:49:44.008Z,15.67
2017-08-26T03:51:37.210Z,15.59
2017-08-26T03:52:37.657Z,15.51
2017-08-26T03:53:38.091Z,15.51
2017-08-26T03:54:38.520Z,15.46
2017-08-26T03:55:38.950Z,15.49
2017-08-26T03:57:32.159Z,15.47
2017-08-26T03:58:32.602Z,15.49
2017-08-26T03:59:33.040Z,15.49
2017-08-26T04:00:33.470Z,15.43
2017-08-26T04:01:33.898Z,15.46
2017-08-26T04:02:34.336Z,15.46
2017-08-26T04:04:27.551Z,15.49
2017-08-26T04:05:27.986Z,15.46
2017-08-26T04:06:28.418Z,15.46
2017-08-26T04:07:28.874Z,15.46
2017-08-26T04:09:22.066Z,15.49
2017-08-26T04:10:22.508Z,15.49
2017-08-26T04:11:22.941Z,15.51
2017-08-26T04:13:16.151Z,15.49
2017-08-26T04:14:16.600Z,15.46
2017-08-26T04:15:17.024Z,15.46
2017-08-26T04:16:17.460Z,15.44
2017-08-26T04:17:17.895Z,15.47
2017-08-26T04:19:11.103Z,15.49
2017-08-26T04:20:11.543Z,15.62
2017-08-26T04:21:11.981Z,15.64
2017-08-26T04:22:12.413Z,15.47
2017-08-26T04:23:12.844Z,15.49
2017-08-26T04:24:13.273Z,15.49
2017-08-26T04:25:13.707Z,15.43
2017-08-26T04:26:14.157Z,15.44
2017-08-26T04:28:07.362Z,15.57
2017-08-26T04:29:07.800Z,15.59
2017-08-26T04:30:08.234Z,15.67
2017-08-26T04:32:02.432Z,15.76
2017-08-26T04:33:02.875Z,15.80
2017-08-26T04:34:03.306Z,15.88
2017-08-26T04:35:03.744Z,15.83
2017-08-26T04:36:56.956Z,15.90
2017-08-26T04:37:57.397Z,15.94
2017-08-26T04:38:57.859Z,15.92
2017-08-26T04:39:58.268Z,15.98
2017-08-26T04:41:52.478Z,16.12
2017-08-26T04:42:52.916Z,16.16
2017-08-26T04:43:53.346Z,16.15
2017-08-26T04:45:46.578Z,16.12
2017-08-26T04:46:47.014Z,16.23
2017-08-26T04:47:47.468Z,16.32
2017-08-26T04:49:40.660Z,16.49
2017-08-26T04:50:41.098Z,16.47
2017-08-26T04:51:41.549Z,16.49
2017-08-26T04:52:41.974Z,16.51
2017-08-26T04:54:35.193Z,16.66
2017-08-26T04:55:35.636Z,16.66
2017-08-26T04:57:28.854Z,16.83
2017-08-26T04:58:29.287Z,16.81
2017-08-26T04:59:29.730Z,16.94
2017-08-26T05:00:30.162Z,16.99
2017-08-26T05:02:23.379Z,16.86
2017-08-26T05:03:23.819Z,16.78
2017-08-26T05:04:24.291Z,16.90
2017-08-26T05:06:17.468Z,17.06
2017-08-26T05:07:17.907Z,17.05
2017-08-26T05:08:18.340Z,17.16
2017-08-26T05:09:18.780Z,17.27
2017-08-26T05:10:19.214Z,17.26
2017-08-26T05:12:12.447Z,17.20
2017-08-26T05:13:12.888Z,17.27
2017-08-26T05:14:13.364Z,17.39
2017-08-26T05:15:13.753Z,17.30
2017-08-26T05:17:07.366Z,17.30
2017-08-26T05:18:07.775Z,17.30
2017-08-26T05:19:08.212Z,17.33
2017-08-26T05:21:02.925Z,17.34
2017-08-26T05:22:03.367Z,17.38
2017-08-26T05:23:03.808Z,17.49
2017-08-26T05:24:04.262Z,17.59
2017-08-26T05:25:04.673Z,17.60
2017-08-26T05:26:05.126Z,17.60
2017-08-26T05:27:58.355Z,17.72
2017-08-26T05:28:58.799Z,17.56
2017-08-26T05:29:59.226Z,17.60
2017-08-26T05:30:59.663Z,17.70
2017-08-26T05:32:00.100Z,17.60
2017-08-26T05:33:00.534Z,17.80
2017-08-26T05:34:00.971Z,17.74
2017-08-26T05:35:54.203Z,17.83
2017-08-26T05:36:54.653Z,17.82
2017-08-26T05:38:47.882Z,17.87
2017-08-26T05:39:48.330Z,18.01
2017-08-26T05:40:48.752Z,18.05
2017-08-26T05:42:41.974Z,18.07
2017-08-26T05:43:42.421Z,18.05
2017-08-26T05:44:42.864Z,18.00
2017-08-26T05:46:36.084Z,18.11
2017-08-26T05:47:36.518Z,18.22
2017-08-26T05:49:58.555Z,18.08
2017-08-26T05:51:30.610Z,18.28
2017-08-26T05:52:31.058Z,18.34
2017-08-26T05:53:31.496Z,18.38
2017-08-26T05:54:31.936Z,18.50
2017-08-26T05:55:32.373Z,18.52
2017-08-26T05:56:32.807Z,18.70
2017-08-26T05:58:26.040Z,18.77
2017-08-26T05:59:26.481Z,18.77
2017-08-26T06:00:26.919Z,18.78
2017-08-26T06:01:27.358Z,18.78
2017-08-26T06:03:21.569Z,18.90
2017-08-26T06:04:22.013Z,18.89
2017-08-26T06:05:22.479Z,19.02
2017-08-26T06:06:22.893Z,19.04
2017-08-26T06:08:17.104Z,19.07
2017-08-26T06:09:17.556Z,19.19
2017-08-26T06:10:17.987Z,19.18
2017-08-26T06:11:18.423Z,19.29
2017-08-26T06:12:18.869Z,19.33
2017-08-26T06:14:12.136Z,19.19
2017-08-26T06:15:12.545Z,19.37
2017-08-26T06:16:13.008Z,19.45
2017-08-26T06:18:06.199Z,19.29
2017-08-26T06:19:06.648Z,19.29
2017-08-26T06:20:07.088Z,19.33
2017-08-26T06:21:07.552Z,19.51
2017-08-26T06:23:00.765Z,19.37
2017-08-26T06:24:01.219Z,19.45
2017-08-26T06:25:55.420Z,19.71
2017-08-26T06:26:55.871Z,19.73
2017-08-26T06:27:56.321Z,19.86
2017-08-26T06:28:56.749Z,19.86
2017-08-26T06:30:50.961Z,20.09
2017-08-26T06:31:51.408Z,20.10
2017-08-26T06:32:51.847Z,20.04
2017-08-26T06:33:52.289Z,20.09
2017-08-26T06:35:45.520Z,20.11
2017-08-26T06:36:45.974Z,20.06
2017-08-26T06:38:40.185Z,20.13
2017-08-26T06:39:40.631Z,20.21
2017-08-26T06:40:41.073Z,20.21
2017-08-26T06:41:41.516Z,20.13
2017-08-26T06:43:35.730Z,20.28
2017-08-26T06:45:30.033Z,20.31
2017-08-26T06:46:30.397Z,20.56
2017-08-26T06:47:30.831Z,20.52
2017-08-26T06:49:24.078Z,20.48
2017-08-26T06:50:24.511Z,20.50
2017-08-26T06:51:24.965Z,20.41
2017-08-26T06:53:18.188Z,20.39
2017-08-26T06:54:18.640Z,20.51
2017-08-26T06:56:11.916Z,20.41
2017-08-26T06:57:12.313Z,20.70
2017-08-26T06:58:12.754Z,20.93
2017-08-26T06:59:13.198Z,20.97
2017-08-26T07:01:07.415Z,21.12
2017-08-26T07:02:07.866Z,21.17
2017-08-26T07:03:08.303Z,21.24
2017-08-26T07:05:02.518Z,21.39
2017-08-26T07:06:02.975Z,21.35
2017-08-26T07:07:03.406Z,21.52
2017-08-26T07:08:56.654Z,21.80
2017-08-26T07:09:57.104Z,21.98
2017-08-26T07:10:57.547Z,22.10
2017-08-26T07:11:57.983Z,21.92
2017-08-26T07:12:58.425Z,21.83
2017-08-26T07:13:58.872Z,21.77
2017-08-26T07:14:59.318Z,21.83
2017-08-26T07:16:52.606Z,21.80
2017-08-26T07:18:45.834Z,21.91
2017-08-26T07:19:46.285Z,21.75
2017-08-26T07:20:46.732Z,21.70
2017-08-26T07:21:47.181Z,21.79
2017-08-26T07:23:40.404Z,21.75
2017-08-26T07:24:40.852Z,21.67
2017-08-26T07:25:41.292Z,21.67
2017-08-26T07:26:41.735Z,21.69
2017-08-26T07:28:35.952Z,21.60
2017-08-26T07:29:36.417Z,21.40
2017-08-26T07:30:36.876Z,21.43
2017-08-26T07:32:30.090Z,21.55
2017-08-26T07:33:30.543Z,21.52
2017-08-26T07:35:23.808Z,21.39
2017-08-26T07:36:24.232Z,21.39
2017-08-26T07:38:18.493Z,21.46
2017-08-26T07:39:18.917Z,21.52
2017-08-26T07:40:19.354Z,21.40
2017-08-26T07:42:13.560Z,21.42
2017-08-26T07:43:14.024Z,21.55
2017-08-26T07:45:08.248Z,21.76
2017-08-26T07:47:01.492Z,22.13
2017-08-26T07:48:01.947Z,22.32
2017-08-26T07:49:02.377Z,22.47
2017-08-26T07:50:56.595Z,22.76
2017-08-26T07:51:57.049Z,22.76
2017-08-26T07:52:57.490Z,22.81
2017-08-26T07:53:57.939Z,22.99
2017-08-26T07:54:58.388Z,23.03
2017-08-26T07:56:52.610Z,23.05
2017-08-26T07:57:53.059Z,23.36
2017-08-26T07:58:53.512Z,23.28
2017-08-26T07:59:53.955Z,23.06
2017-08-26T08:00:54.401Z,23.27
2017-08-26T08:01:54.844Z,23.36
2017-08-26T08:02:55.299Z,23.24
2017-08-26T08:04:48.542Z,23.59
2017-08-26T08:05:48.993Z,23.59
2017-08-26T08:06:49.444Z,23.58
2017-08-26T08:08:42.677Z,23.62
2017-08-26T08:09:43.132Z,23.18
2017-08-26T08:10:43.587Z,23.05
2017-08-26T08:11:44.027Z,22.87
2017-08-26T08:12:44.474Z,22.75
2017-08-26T08:13:44.922Z,22.60
2017-08-26T08:14:45.367Z,22.50
2017-08-26T08:16:38.612Z,22.25
2017-08-26T08:17:39.070Z,22.25
2017-08-26T08:19:32.303Z,22.29
2017-08-26T08:20:32.755Z,22.28
2017-08-26T08:21:33.202Z,22.32
2017-08-26T08:22:33.645Z,22.43
2017-08-26T08:24:26.882Z,22.38
2017-08-26T08:25:27.335Z,22.45
2017-08-26T08:26:27.794Z,22.51
2017-08-26T08:27:28.225Z,22.50
2017-08-26T08:29:21.456Z,22.23
2017-08-26T08:30:21.915Z,22.23
2017-08-26T08:31:22.355Z,22.11
2017-08-26T08:32:22.798Z,21.99
2017-08-26T08:33:23.240Z,21.73
2017-08-26T08:34:23.686Z,21.64
2017-08-26T08:36:16.917Z,21.58
2017-08-26T08:37:17.381Z,21.73
2017-08-26T08:38:17.815Z,21.57
2017-08-26T08:39:18.254Z,21.50
2017-08-26T08:41:11.480Z,21.66
2017-08-26T08:43:04.713Z,21.75
2017-08-26T08:44:05.162Z,21.92
2017-08-26T08:45:05.612Z,21.82
2017-08-26T08:46:06.049Z,22.06
2017-08-26T08:47:59.276Z,22.15
2017-08-26T08:49:52.511Z,22.26
2017-08-26T08:50:52.962Z,22.30
2017-08-26T08:51:53.408Z,22.33
2017-08-26T08:52:53.854Z,22.38
2017-08-26T08:54:47.108Z,22.41
2017-08-26T08:55:47.537Z,22.60
2017-08-26T08:56:47.980Z,22.38
2017-08-26T08:57:48.421Z,22.50
2017-08-26T08:58:48.882Z,22.53
2017-08-26T08:59:49.308Z,22.72
2017-08-26T09:00:49.753Z,22.66
2017-08-26T09:01:50.195Z,22.62
2017-08-26T09:02:50.643Z,22.60
2017-08-26T09:03:51.090Z,22.51
2017-08-26T09:04:51.534Z,22.55
2017-08-26T09:05:51.995Z,22.66
2017-08-26T09:07:45.209Z,22.85
2017-08-26T09:08:45.666Z,22.70
2017-08-26T09:09:46.108Z,22.90
2017-08-26T09:10:46.552Z,23.13
2017-08-26T09:11:46.996Z,23.15
2017-08-26T09:13:40.241Z,23.08
2017-08-26T09:14:40.687Z,23.31
2017-08-26T09:15:41.139Z,23.03
2017-08-26T09:17:34.374Z,23.23
2017-08-26T09:18:34.828Z,23.24
2017-08-26T09:19:35.272Z,23.46
2017-08-26T09:20:35.718Z,23.43
2017-08-26T09:22:28.952Z,23.39
2017-08-26T09:23:29.406Z,23.39
2017-08-26T09:24:29.870Z,23.37
2017-08-26T09:25:30.319Z,23.21
2017-08-26T09:27:23.562Z,23.09
2017-08-26T09:29:16.804Z,23.13
2017-08-26T09:30:17.256Z,23.10
2017-08-26T09:31:17.701Z,23.32
2017-08-26T09:32:18.145Z,23.31
2017-08-26T09:33:18.595Z,23.54
2017-08-26T09:34:19.038Z,23.78
2017-08-26T09:35:19.484Z,23.92
2017-08-26T09:36:19.935Z,24.01
2017-08-26T09:38:13.205Z,24.53
2017-08-26T09:39:13.656Z,24.69
2017-08-26T09:40:14.100Z,25.01
2017-08-26T09:41:14.558Z,25.48
2017-08-26T09:43:07.793Z,25.83
2017-08-26T09:44:08.254Z,25.70
2017-08-26T09:45:08.698Z,25.62
2017-08-26T09:47:01.944Z,25.59
2017-08-26T09:48:02.407Z,24.76
2017-08-26T09:49:02.852Z,24.88
2017-08-26T09:50:03.298Z,24.66
2017-08-26T09:51:56.542Z,24.58
2017-08-26T09:52:56.994Z,24.42
2017-08-26T09:53:57.445Z,24.42
2017-08-26T09:54:57.894Z,24.23
2017-08-26T09:55:58.343Z,24.28
2017-08-26T09:56:58.799Z,24.06
2017-08-26T09:58:52.028Z,24.16
2017-08-26T10:00:45.266Z,24.02
2017-08-26T10:01:45.728Z,24.03
2017-08-26T10:02:46.177Z,24.10
2017-08-26T10:03:46.624Z,24.17
2017-08-26T10:04:47.070Z,24.14
2017-08-26T10:05:47.515Z,23.96
2017-08-26T10:06:47.962Z,24.14
2017-08-26T10:07:48.408Z,23.81
2017-08-26T10:08:48.861Z,23.65
2017-08-26T10:10:42.103Z,23.76
2017-08-26T10:11:42.554Z,23.77
2017-08-26T10:12:43.001Z,23.51
2017-08-26T10:13:43.449Z,23.51
2017-08-26T10:14:43.899Z,23.66
2017-08-26T10:16:38.130Z,23.69
2017-08-26T10:17:38.578Z,23.68
2017-08-26T10:18:39.033Z,23.84
2017-08-26T10:19:39.474Z,23.91
2017-08-26T10:21:32.706Z,23.91
2017-08-26T10:23:25.959Z,23.98
2017-08-26T10:24:26.403Z,23.80
2017-08-26T10:25:26.849Z,23.80
2017-08-26T10:26:27.302Z,23.88
2017-08-26T10:28:20.535Z,24.03
2017-08-26T10:29:20.993Z,23.91
2017-08-26T10:30:21.439Z,24.02
2017-08-26T10:31:21.882Z,24.26
2017-08-26T10:32:22.332Z,24.45
2017-08-26T10:34:15.576Z,24.63
2017-08-26T10:35:16.025Z,24.84
2017-08-26T10:36:16.472Z,25.08
2017-08-26T10:37:16.924Z,25.04
2017-08-26T10:38:17.373Z,24.88
2017-08-26T10:40:11.594Z,24.48
2017-08-26T10:42:05.832Z,23.98
2017-08-26T10:43:06.288Z,23.81
2017-08-26T10:44:06.750Z,23.84
2017-08-26T10:45:59.983Z,23.93
2017-08-26T10:47:00.445Z,24.11
2017-08-26T10:48:00.884Z,24.36
2017-08-26T10:49:01.339Z,24.38
2017-08-26T10:50:54.583Z,24.69
2017-08-26T10:51:55.043Z,24.73
2017-08-26T10:52:55.491Z,24.51
2017-08-26T10:54:48.730Z,24.54
2017-08-26T10:56:41.993Z,24.58
2017-08-26T10:57:42.463Z,24.86
2017-08-26T10:58:42.904Z,25.16
2017-08-26T11:00:37.124Z,25.18
2017-08-26T11:02:30.387Z,25.32
2017-08-26T11:03:30.833Z,25.53
2017-08-26T11:04:31.281Z,25.41
2017-08-26T11:05:31.732Z,25.36
2017-08-26T11:06:32.176Z,25.40
2017-08-26T11:07:32.634Z,25.44
2017-08-26T11:08:33.085Z,25.25
2017-08-26T11:10:26.316Z,25.08
2017-08-26T11:11:26.791Z,25.17
2017-08-26T11:12:27.233Z,25.11
2017-08-26T11:13:27.690Z,25.29
2017-08-26T11:14:28.127Z,25.26
2017-08-26T11:16:21.372Z,25.77
2017-08-26T11:17:21.836Z,26.09
2017-08-26T11:18:22.281Z,26.18
2017-08-26T11:19:22.732Z,26.37
2017-08-26T11:21:15.981Z,26.47
2017-08-26T11:22:16.447Z,26.78
2017-08-26T11:23:16.899Z,26.48
2017-08-26T11:25:10.131Z,26.84
2017-08-26T11:26:10.599Z,26.25
2017-08-26T11:27:11.045Z,26.16
2017-08-26T11:28:11.511Z,26.34
2017-08-26T11:30:04.762Z,26.85
2017-08-26T11:31:05.222Z,26.77
2017-08-26T11:32:05.669Z,27.12
2017-08-26T11:33:58.953Z,26.71
2017-08-26T11:34:59.412Z,26.45
2017-08-26T11:36:52.663Z,25.95
2017-08-26T11:37:53.141Z,26.44
2017-08-26T11:38:53.596Z,26.06
2017-08-26T11:40:47.622Z,26.44
2017-08-26T11:41:47.862Z,26.63
2017-08-26T11:42:48.332Z,26.55
2017-08-26T11:43:48.795Z,25.73
2017-08-26T11:44:49.232Z,25.69
2017-08-26T11:45:49.688Z,25.95
2017-08-26T11:46:50.138Z,25.99
2017-08-26T11:47:50.590Z,26.26
2017-08-26T11:48:51.046Z,26.37
2017-08-26T11:50:44.292Z,26.71
2017-08-26T11:51:44.959Z,26.45
2017-08-26T11:52:45.190Z,26.71
2017-08-26T11:53:45.653Z,26.53
2017-08-26T11:54:46.105Z,26.68
2017-08-26T11:56:39.370Z,26.48
2017-08-26T11:57:39.827Z,26.80
2017-08-26T11:59:33.090Z,27.33
2017-08-26T12:00:33.548Z,27.18
2017-08-26T12:02:27.792Z,26.60
2017-08-26T12:04:22.017Z,26.23
2017-08-26T12:05:22.480Z,26.38
2017-08-26T12:06:22.938Z,26.21
2017-08-26T12:08:16.195Z,26.25
2017-08-26T12:09:16.646Z,26.38
2017-08-26T12:10:17.095Z,25.93
2017-08-26T12:12:10.336Z,26.16
2017-08-26T12:13:10.792Z,25.91
2017-08-26T12:14:11.278Z,26.13
2017-08-26T12:15:11.693Z,26.19
2017-08-26T12:16:12.145Z,26.22
2017-08-26T12:18:06.370Z,26.16
2017-08-26T12:20:00.617Z,26.15
2017-08-26T12:21:01.078Z,26.18
2017-08-26T12:22:01.534Z,26.18
2017-08-26T12:23:55.763Z,25.58
2017-08-26T12:24:56.217Z,25.36
2017-08-26T12:25:56.668Z,25.50
2017-08-26T12:26:57.124Z,25.31
2017-08-26T12:28:50.354Z,25.59
2017-08-26T12:29:50.813Z,25.62
2017-08-26T12:30:51.259Z,25.68
2017-08-26T12:31:51.718Z,25.87
2017-08-26T12:32:52.166Z,25.81
2017-08-26T12:34:45.427Z,25.70
2017-08-26T12:36:38.653Z,25.48
2017-08-26T12:37:39.110Z,25.50
2017-08-26T12:38:39.577Z,25.38
2017-08-26T12:39:40.035Z,25.28
2017-08-26T12:41:33.252Z,25.28
2017-08-26T12:42:33.725Z,25.28
2017-08-26T12:43:34.158Z,25.08
2017-08-26T12:45:27.395Z,25.07
2017-08-26T12:47:20.639Z,25.33
2017-08-26T12:49:13.882Z,25.48
2017-08-26T12:50:14.343Z,25.73
2017-08-26T12:51:14.789Z,25.44
2017-08-26T12:52:15.236Z,24.99
2017-08-26T12:53:15.685Z,25.44
2017-08-26T12:54:16.137Z,25.65
2017-08-26T12:55:16.588Z,25.60
2017-08-26T12:56:17.037Z,25.72
2017-08-26T12:57:17.501Z,25.70
2017-08-26T12:58:17.924Z,25.80
2017-08-26T12:59:18.372Z,25.55
2017-08-26T13:00:18.827Z,25.43
2017-08-26T13:01:19.272Z,25.60
2017-08-26T13:03:12.517Z,25.53
2017-08-26T13:04:12.974Z,25.48
2017-08-26T13:05:13.434Z,25.44
2017-08-26T13:07:07.652Z,25.44
2017-08-26T13:08:08.110Z,25.58
2017-08-26T13:09:08.553Z,25.72
2017-08-26T13:10:09.002Z,25.48
2017-08-26T13:12:02.247Z,25.59
2017-08-26T13:13:02.701Z,25.77
2017-08-26T13:14:03.156Z,25.66
2017-08-26T13:15:56.410Z,25.59
2017-08-26T13:16:56.857Z,25.66
2017-08-26T13:17:57.295Z,25.60
2017-08-26T13:18:57.743Z,25.54
2017-08-26T13:19:58.195Z,25.51
2017-08-26T13:20:58.641Z,25.32
2017-08-26T13:21:59.095Z,25.48
2017-08-26T13:22:59.541Z,25.51
2017-08-26T13:24:52.777Z,25.48
2017-08-26T13:25:53.235Z,25.60
2017-08-26T13:26:53.691Z,25.60
2017-08-26T13:28:46.921Z,25.40
2017-08-26T13:29:47.376Z,25.29
2017-08-26T13:30:47.822Z,25.25
2017-08-26T13:31:48.272Z,25.29
2017-08-26T13:32:48.718Z,25.26
2017-08-26T13:33:49.164Z,25.36
2017-08-26T13:34:49.617Z,25.46
2017-08-26T13:36:42.876Z,25.54
2017-08-26T13:37:43.319Z,25.44
2017-08-26T13:38:43.820Z,25.40
2017-08-26T13:39:44.209Z,25.26
2017-08-26T13:40:44.655Z,25.44
2017-08-26T13:42:38.893Z,25.38
2017-08-26T13:44:32.117Z,25.25
2017-08-26T13:45:32.582Z,25.41
2017-08-26T13:48:06.155Z,25.40
2017-08-26T13:50:00.370Z,25.43
2017-08-26T13:51:00.828Z,25.22
2017-08-26T13:52:01.281Z,25.21
2017-08-26T13:53:01.722Z,25.28
2017-08-26T13:54:02.169Z,25.29
2017-08-26T13:55:02.622Z,25.35
2017-08-26T13:56:55.864Z,25.58
2017-08-26T13:57:56.354Z,25.44
2017-08-26T13:58:56.758Z,25.53
2017-08-26T13:59:57.209Z,25.53
2017-08-26T14:00:57.656Z,25.62
2017-08-26T14:02:51.884Z,25.81
2017-08-26T14:03:52.336Z,25.81
2017-08-26T14:04:52.787Z,25.70
2017-08-26T14:05:53.238Z,25.84
2017-08-26T14:06:53.680Z,25.91
2017-08-26T14:07:54.128Z,25.73
2017-08-26T14:08:54.589Z,25.99
2017-08-26T14:10:47.806Z,26.06
2017-08-26T14:11:48.263Z,26.05
2017-08-26T14:12:48.724Z,25.75
2017-08-26T14:13:49.161Z,25.85
2017-08-26T14:14:49.613Z,25.81
2017-08-26T14:15:50.054Z,25.83
2017-08-26T14:16:50.510Z,26.06
2017-08-26T14:18:43.748Z,26.10
2017-08-26T14:19:44.206Z,26.06
2017-08-26T14:20:44.655Z,26.05
2017-08-26T14:21:45.102Z,26.06
2017-08-26T14:22:45.552Z,25.93
2017-08-26T14:24:38.785Z,25.96
2017-08-26T14:25:39.241Z,25.93
2017-08-26T14:26:39.694Z,25.85
2017-08-26T14:27:40.137Z,25.81
2017-08-26T14:28:40.599Z,25.70
2017-08-26T14:30:34.806Z,25.68
2017-08-26T14:31:35.259Z,25.66
2017-08-26T14:32:35.708Z,25.77
2017-08-26T14:33:36.153Z,25.70
2017-08-26T14:34:36.604Z,25.54
2017-08-26T14:35:37.060Z,25.41
2017-08-26T14:36:37.500Z,25.69
2017-08-26T14:37:37.950Z,25.85
2017-08-26T14:39:31.189Z,25.91
2017-08-26T14:40:31.657Z,25.77
2017-08-26T14:41:32.104Z,25.73
2017-08-26T14:43:25.345Z,25.75
2017-08-26T14:44:25.822Z,25.83
2017-08-26T14:45:26.251Z,25.90
2017-08-26T14:47:19.502Z,25.58
2017-08-26T14:48:19.964Z,25.29
2017-08-26T14:49:20.403Z,25.25
2017-08-26T14:50:20.854Z,25.16
2017-08-26T14:52:14.087Z,25.28
2017-08-26T14:53:14.539Z,25.16
2017-08-26T14:54:14.989Z,25.23
2017-08-26T14:55:15.442Z,25.08
2017-08-26T14:56:15.886Z,25.03
2017-08-26T14:57:16.329Z,24.95
2017-08-26T14:58:16.772Z,25.07
2017-08-26T14:59:17.219Z,25.11
2017-08-26T15:00:17.677Z,25.21
2017-08-26T15:01:18.122Z,25.08
2017-08-26T15:02:18.560Z,24.96
2017-08-26T15:03:19.010Z,25.03
2017-08-26T15:04:19.455Z,25.08
2017-08-26T15:06:12.685Z,25.23
2017-08-26T15:07:13.147Z,25.21
2017-08-26T15:08:13.592Z,25.32
2017-08-26T15:09:14.034Z,25.43
2017-08-26T15:10:14.482Z,25.36
2017-08-26T15:11:14.928Z,25.53
2017-08-26T15:13:09.144Z,25.54
2017-08-26T15:14:09.597Z,25.54
2017-08-26T15:15:10.047Z,25.41
2017-08-26T15:16:10.500Z,25.48
2017-08-26T15:17:10.944Z,25.51
2017-08-26T15:19:04.176Z,25.51
2017-08-26T15:20:04.635Z,25.62
2017-08-26T15:21:05.083Z,25.48
2017-08-26T15:22:05.525Z,25.41
2017-08-26T15:23:05.971Z,25.48
2017-08-26T15:24:06.416Z,25.38
2017-08-26T15:25:06.867Z,25.35
2017-08-26T15:27:00.096Z,25.23
2017-08-26T15:28:53.340Z,25.18
2017-08-26T15:30:47.572Z,25.11
2017-08-26T15:31:48.025Z,25.21
2017-08-26T15:32:48.469Z,25.25
2017-08-26T15:33:48.914Z,25.10
2017-08-26T15:34:49.358Z,25.16
2017-08-26T15:35:49.806Z,25.07
2017-08-26T15:37:43.055Z,25.03
2017-08-26T15:38:43.496Z,25.16
2017-08-26T15:39:43.947Z,25.11
2017-08-26T15:40:46.291Z,24.95
2017-08-26T15:42:12.793Z,25.08
2017-08-26T15:42:45.284Z,25.07
2017-08-26T15:44:39.503Z,24.80
2017-08-26T15:46:33.747Z,24.70
2017-08-26T15:47:34.183Z,24.70
2017-08-26T15:48:34.627Z,24.84
2017-08-26T15:49:35.080Z,24.91
2017-08-26T15:51:29.308Z,24.88
2017-08-26T15:53:23.584Z,25.01
2017-08-26T15:54:23.980Z,25.08
2017-08-26T15:55:24.426Z,25.16